West Monocacy, Pennsylvania
Current Conditions -  °F | °C
As of 10:54 PM on Friday 24 Oct 2014 (Local Time) from KPTW Reporting Station
Clear Clear  
Wind Chill: 54°   Ceiling: Unl
Heat Index: 54°   Visibility: 10mi
Dew Point: 35°   Wind: 0mph
Humidity: 49%   Direction: NA
Pressure: 29.9"   Gusts: NA
Location:  40.2688°N, 75.7411°W
Report Text: KPTW 250254Z AUTO 00000KT 10SM CLR 12/02 A2990 RMK AO2 SLP123 T01220017 53010
Loading
Personal Weather Stations






























Interactive Weather Map
Tropical Storm Tracking
New forecast layout! Learn more

10-Day Weather Forecast

Advertisements
Track Severe Weather on mobile